Time;durP1;ratioP1;P1;durP2;ratioP2;P2;SDS_P1;SDS_P2;PMS_P1;PMS_P2;Temp;Humidity;BMP_temperature;BMP_pressure;BME280_temperature;BME280_humidity;BME280_pressure;Samples;Min_cycle;Max_cycle;Signal;HPM_P1;HPM_P2
2024/03/15 00:00:47;;;;;;;14.45;9.55;;;;;;;10.50;100.00;98488.59;4977451;28;20033;-65
2024/03/15 00:03:12;;;;;;;15.70;9.15;;;;;;;10.51;100.00;98487.66;4968940;28;20045;-66
2024/03/15 00:05:38;;;;;;;12.55;9.20;;;;;;;10.62;100.00;98493.59;4962143;28;20037;-67
2024/03/15 00:08:04;;;;;;;12.80;8.73;;;;;;;10.36;100.00;98450.13;4970157;28;20073;-65
2024/03/15 00:10:29;;;;;;;13.43;9.00;;;;;;;10.53;100.00;98496.13;4973116;28;20041;-66
2024/03/15 00:12:54;;;;;;;14.07;8.75;;;;;;;10.51;100.00;98495.47;4975565;28;20567;-66
2024/03/15 00:15:20;;;;;;;17.42;9.00;;;;;;;10.51;100.00;98497.22;4975269;28;20030;-68
2024/03/15 00:17:46;;;;;;;13.18;8.90;;;;;;;10.51;100.00;98495.47;4981664;28;20123;-66
2024/03/15 00:20:14;;;;;;;14.48;9.23;;;;;;;10.47;100.00;98482.88;4957465;28;20033;-65
2024/03/15 00:22:39;;;;;;;14.18;8.32;;;;;;;10.40;100.00;98495.63;4966245;28;20070;-65
2024/03/15 00:25:07;;;;;;;14.90;8.80;;;;;;;10.41;100.00;98484.28;4973198;28;20109;-67
2024/03/15 00:27:32;;;;;;;16.60;8.80;;;;;;;10.35;100.00;98483.09;4975457;28;20053;-65
2024/03/15 00:30:00;;;;;;;13.15;8.88;;;;;;;10.27;100.00;98495.16;4983365;28;20064;-66
2024/03/15 00:32:27;;;;;;;11.35;8.50;;;;;;;10.28;100.00;98487.22;4976700;28;20053;-65
2024/03/15 00:34:55;;;;;;;16.40;8.63;;;;;;;10.29;100.00;98490.63;4960367;28;20056;-64
2024/03/15 00:37:20;;;;;;;14.95;9.43;;;;;;;10.18;100.00;98486.44;4968790;28;20049;-66
2024/03/15 00:39:48;;;;;;;14.90;9.30;;;;;;;10.17;100.00;98488.22;4959507;28;20031;-67
2024/03/15 00:42:16;;;;;;;16.08;9.43;;;;;;;10.04;100.00;98485.16;4973752;28;20049;-67
2024/03/15 00:44:41;;;;;;;13.63;8.77;;;;;;;10.06;100.00;98485.81;4962321;28;20682;-65
2024/03/15 00:47:09;;;;;;;14.75;9.23;;;;;;;10.20;100.00;98487.94;4964673;28;20034;-65
2024/03/15 00:49:36;;;;;;;15.30;9.32;;;;;;;10.22;100.00;98484.38;4958417;28;20479;-66
2024/03/15 00:52:02;;;;;;;14.68;9.40;;;;;;;10.18;100.00;98481.25;4962096;28;20177;-68
2024/03/15 00:54:27;;;;;;;14.13;9.15;;;;;;;10.14;100.00;98478.13;4950320;28;20137;-66
2024/03/15 00:56:53;;;;;;;15.25;9.50;;;;;;;10.11;100.00;98473.22;4962838;28;20787;-66
2024/03/15 00:59:20;;;;;;;18.15;9.68;;;;;;;10.06;100.00;98464.22;4964899;28;20745;-66
2024/03/15 01:01:48;;;;;;;13.98;9.57;;;;;;;10.07;100.00;98466.66;4974785;28;20038;-65
2024/03/15 01:04:13;;;;;;;13.90;8.70;;;;;;;9.98;100.00;98460.56;4977325;28;20691;-65
2024/03/15 01:06:39;;;;;;;13.05;9.20;;;;;;;10.00;100.00;98474.25;4956882;28;20029;-66
2024/03/15 01:09:05;;;;;;;14.07;9.00;;;;;;;10.00;100.00;98458.66;4958302;28;20045;-65
2024/03/15 01:11:31;;;;;;;15.63;9.35;;;;;;;9.82;100.00;98422.25;4970608;28;20763;-64
2024/03/15 01:13:58;;;;;;;15.82;9.88;;;;;;;9.89;100.00;98429.44;4957532;28;20030;-64
2024/03/15 01:16:24;;;;;;;13.82;8.80;;;;;;;10.04;100.00;98458.34;4964339;28;20033;-67
2024/03/15 01:18:54;;;;;;;16.20;8.65;;;;;;;10.00;100.00;98453.47;4972152;28;20176;-66
2024/03/15 01:21:20;;;;;;;16.65;9.20;;;;;;;9.91;100.00;98459.53;4983759;28;20103;-66
2024/03/15 01:23:47;;;;;;;14.85;8.90;;;;;;;9.85;100.00;98456.66;4977273;28;20133;-65
2024/03/15 01:26:15;;;;;;;16.67;9.15;;;;;;;9.82;100.00;98447.41;4981754;28;20034;-66
2024/03/15 01:28:43;;;;;;;13.85;9.35;;;;;;;9.72;100.00;98439.63;4955772;28;20038;-67
2024/03/15 01:31:08;;;;;;;15.23;8.68;;;;;;;9.75;100.00;98439.34;4977564;28;20030;-67
2024/03/15 01:33:36;;;;;;;15.95;9.43;;;;;;;9.77;100.00;98440.03;4973649;28;20052;-68
2024/03/15 01:36:04;;;;;;;13.60;9.02;;;;;;;9.75;100.00;98436.75;4964187;28;20161;-64
2024/03/15 01:38:32;;;;;;;15.38;9.50;;;;;;;9.81;100.00;98446.56;4972527;28;20084;-64
2024/03/15 01:40:57;;;;;;;14.77;8.68;;;;;;;9.77;100.00;98442.63;4957794;28;20034;-66
2024/03/15 01:43:22;;;;;;;15.15;9.02;;;;;;;9.50;100.00;98388.09;4978787;28;20049;-67
2024/03/15 01:45:48;;;;;;;13.85;9.73;;;;;;;9.72;100.00;98444.00;4960645;28;20061;-64
2024/03/15 01:48:13;;;;;;;16.80;9.38;;;;;;;9.70;100.00;98423.38;4962731;28;21232;-64
2024/03/15 01:50:39;;;;;;;14.27;9.63;;;;;;;9.76;100.00;98427.19;4971966;28;20717;-65
2024/03/15 01:53:07;;;;;;;14.65;8.90;;;;;;;9.74;100.00;98418.72;4959304;28;20146;-65
2024/03/15 01:55:33;;;;;;;13.55;9.85;;;;;;;9.77;100.00;98427.03;4977170;28;20052;-68
2024/03/15 01:58:04;;;;;;;16.77;9.90;;;;;;;9.79;100.00;98421.72;4970012;28;20042;-67
2024/03/15 02:00:31;;;;;;;13.30;9.30;;;;;;;9.75;100.00;98415.97;4979479;28;20065;-64
2024/03/15 02:02:59;;;;;;;15.82;9.05;;;;;;;9.65;100.00;98412.59;4979036;28;20049;-66
2024/03/15 02:05:27;;;;;;;14.60;8.57;;;;;;;9.60;100.00;98422.59;4973693;28;20048;-64
2024/03/15 02:07:53;;;;;;;15.00;9.38;;;;;;;9.67;100.00;98422.84;4984930;28;20591;-66
2024/03/15 02:10:20;;;;;;;14.02;8.73;;;;;;;9.66;100.00;98423.81;4959818;28;20038;-68
2024/03/15 02:12:49;;;;;;;15.57;8.60;;;;;;;9.58;100.00;98421.91;4962209;28;20048;-67
2024/03/15 02:15:16;;;;;;;13.98;8.18;;;;;;;9.60;100.00;98418.25;4972915;28;20049;-67
2024/03/15 02:17:42;;;;;;;13.93;8.77;;;;;;;9.62;100.00;98407.72;4971802;28;20153;-66
2024/03/15 02:20:15;;;;;;;15.70;8.55;;;;;;;9.50;100.00;98411.44;4976354;28;20038;-67
2024/03/15 02:22:44;;;;;;;14.48;8.88;;;;;;;9.35;100.00;98413.69;4960836;28;20038;-65
2024/03/15 02:25:09;;;;;;;12.63;8.77;;;;;;;9.14;100.00;98374.97;4980932;28;20120;-65
2024/03/15 02:27:35;;;;;;;18.05;8.98;;;;;;;9.30;100.00;98408.09;4971314;28;20272;-65
2024/03/15 02:30:01;;;;;;;14.23;8.48;;;;;;;8.98;100.00;98362.59;4972673;28;20662;-64
2024/03/15 02:32:29;;;;;;;15.13;8.50;;;;;;;9.39;100.00;98420.22;4956805;28;20054;-65
2024/03/15 02:34:54;;;;;;;14.00;8.27;;;;;;;9.31;100.00;98412.31;4977800;28;20041;-66
2024/03/15 02:37:20;;;;;;;13.32;8.02;;;;;;;9.22;100.00;98409.63;4967022;28;20030;-65
2024/03/15 02:39:48;;;;;;;13.25;8.50;;;;;;;9.26;100.00;98417.13;4965958;28;20046;-66
2024/03/15 02:42:16;;;;;;;13.80;8.00;;;;;;;9.24;100.00;98407.72;4976056;28;20050;-64
2024/03/15 02:44:41;;;;;;;12.25;7.97;;;;;;;9.28;100.00;98407.44;4951188;28;20041;-67
2024/03/15 02:47:07;;;;;;;12.30;8.35;;;;;;;9.22;100.00;98403.63;4966546;28;20037;-62
2024/03/15 02:49:37;;;;;;;14.80;8.65;;;;;;;9.14;100.00;98411.28;4955577;28;20073;-64
2024/03/15 02:52:03;;;;;;;12.05;8.38;;;;;;;9.17;100.00;98413.59;4990160;28;20113;-65
2024/03/15 02:54:29;;;;;;;13.93;8.07;;;;;;;9.22;100.00;98417.41;4970065;28;21861;-65
2024/03/15 02:56:59;;;;;;;14.63;8.25;;;;;;;9.23;100.00;98413.03;4983596;28;20802;-66
2024/03/15 02:59:25;;;;;;;15.55;9.57;;;;;;;9.05;100.00;98425.91;4974001;28;20527;-65
2024/03/15 03:01:51;;;;;;;14.95;8.70;;;;;;;8.95;100.00;98423.34;4988290;28;20034;-65
2024/03/15 03:04:19;;;;;;;14.27;8.05;;;;;;;8.75;100.00;98383.66;4978943;28;20646;-67
2024/03/15 03:06:47;;;;;;;15.68;8.77;;;;;;;8.98;100.00;98419.63;4973747;28;20124;-65
2024/03/15 03:09:17;;;;;;;12.15;7.85;;;;;;;8.79;100.00;98389.38;4973810;28;20053;-66
2024/03/15 03:11:43;;;;;;;14.88;7.93;;;;;;;9.02;100.00;98433.97;4964397;28;20515;-65
2024/03/15 03:14:09;;;;;;;14.68;7.82;;;;;;;8.70;100.00;98391.03;4957012;28;20034;-67
2024/03/15 03:16:35;;;;;;;11.93;8.27;;;;;;;9.11;100.00;98435.75;4988942;28;20615;-66
2024/03/15 03:19:04;;;;;;;13.98;8.10;;;;;;;9.07;100.00;98436.13;4970041;28;20039;-67
2024/03/15 03:21:30;;;;;;;13.55;8.65;;;;;;;8.72;100.00;98390.88;4981232;28;20494;-66
2024/03/15 03:23:57;;;;;;;14.00;8.77;;;;;;;8.99;100.00;98440.25;4958345;28;20042;-67
2024/03/15 03:26:25;;;;;;;13.68;8.05;;;;;;;8.98;100.00;98438.63;4965216;28;20041;-66
2024/03/15 03:28:51;;;;;;;12.68;8.68;;;;;;;8.81;100.00;98442.72;4958747;28;20124;-66
2024/03/15 03:31:16;;;;;;;15.38;7.88;;;;;;;8.84;100.00;98437.25;4965712;28;21299;-64
2024/03/15 03:33:42;;;;;;;15.63;8.20;;;;;;;8.87;100.00;98438.78;4982660;28;20042;-65
2024/03/15 03:36:07;;;;;;;12.80;7.93;;;;;;;8.88;100.00;98424.84;4955586;28;20038;-64
2024/03/15 03:38:33;;;;;;;14.93;8.13;;;;;;;8.92;100.00;98438.34;4959853;28;20513;-63
2024/03/15 03:41:00;;;;;;;15.48;7.97;;;;;;;8.94;100.00;98436.44;4960351;28;20535;-65
2024/03/15 03:43:30;;;;;;;16.13;9.18;;;;;;;8.92;100.00;98435.75;4978700;28;20060;-64
2024/03/15 03:45:58;;;;;;;13.50;8.50;;;;;;;8.93;100.00;98435.63;4964572;28;20046;-66
2024/03/15 03:48:26;;;;;;;17.75;9.77;;;;;;;8.63;100.00;98377.81;4979522;28;20764;-66
2024/03/15 03:50:54;;;;;;;15.02;9.30;;;;;;;8.88;100.00;98411.88;4982800;28;20034;-66
2024/03/15 03:53:20;;;;;;;17.25;10.43;;;;;;;8.90;100.00;98422.13;4971033;28;20049;-66
2024/03/15 03:55:48;;;;;;;14.15;9.00;;;;;;;8.92;100.00;98420.19;4989688;28;20038;-66
2024/03/15 03:58:16;;;;;;;14.75;8.65;;;;;;;8.92;100.00;98433.97;4957766;28;20038;-66
2024/03/15 04:00:41;;;;;;;13.77;8.52;;;;;;;8.90;100.00;98433.28;4974919;28;20894;-66
2024/03/15 04:03:07;;;;;;;14.77;8.90;;;;;;;8.76;100.00;98429.38;4965793;28;20045;-66
2024/03/15 04:05:32;;;;;;;14.68;8.63;;;;;;;8.63;100.00;98424.47;4962395;28;20037;-66
2024/03/15 04:08:02;;;;;;;15.43;8.45;;;;;;;8.72;100.00;98443.53;4964640;28;20037;-66
2024/03/15 04:10:35;;;;;;;14.50;8.73;;;;;;;8.74;100.00;98439.03;4976973;28;20056;-67
2024/03/15 04:13:01;;;;;;;12.98;9.00;;;;;;;8.66;100.00;98431.94;4974542;28;20540;-65
2024/03/15 04:15:27;;;;;;;15.75;8.43;;;;;;;8.53;100.00;98402.91;4974048;28;20120;-66
2024/03/15 04:17:52;;;;;;;14.95;9.38;;;;;;;8.70;100.00;98439.47;4961545;28;20769;-65
2024/03/15 04:20:22;;;;;;;14.93;9.20;;;;;;;8.65;100.00;98450.22;4975943;28;20036;-65
2024/03/15 04:22:48;;;;;;;13.90;8.88;;;;;;;8.49;100.00;98401.53;4979241;28;20049;-64
2024/03/15 04:25:16;;;;;;;13.55;8.60;;;;;;;8.86;100.00;98442.31;4981013;28;20111;-64
2024/03/15 04:27:43;;;;;;;17.90;8.93;;;;;;;8.90;100.00;98432.50;4957894;28;20116;-64
2024/03/15 04:30:16;;;;;;;16.08;8.93;;;;;;;8.67;100.00;98401.69;4963240;28;20873;-65
2024/03/15 04:32:49;;;;;;;15.85;9.25;;;;;;;8.64;100.00;98407.13;4961007;28;20022;-65
2024/03/15 04:35:17;;;;;;;13.25;8.63;;;;;;;8.59;100.00;98399.75;4965726;28;20706;-66
2024/03/15 04:37:48;;;;;;;12.65;8.80;;;;;;;8.92;100.00;98441.75;4975368;28;20485;-64
2024/03/15 04:40:16;;;;;;;15.23;8.27;;;;;;;8.85;100.00;98443.25;4979131;28;20041;-65
2024/03/15 04:42:41;;;;;;;14.13;8.15;;;;;;;8.92;100.00;98446.13;4959167;28;20089;-65
2024/03/15 04:45:09;;;;;;;15.00;7.90;;;;;;;8.95;100.00;98441.50;4971950;28;20050;-65
2024/03/15 04:47:39;;;;;;;13.10;9.07;;;;;;;9.01;100.00;98448.69;4965453;28;20123;-66
2024/03/15 04:50:09;;;;;;;15.13;8.70;;;;;;;9.01;100.00;98453.88;4974927;28;20037;-67
2024/03/15 04:52:35;;;;;;;;;;;;;;;8.96;100.00;98450.91;4978136;28;20041;-67
2024/03/15 04:55:01;;;;;;;13.82;8.63;;;;;;;8.62;100.00;98442.75;4974733;28;19967;-65
2024/03/15 04:57:27;;;;;;;17.88;8.70;;;;;;;8.68;100.00;98446.56;4976900;28;20065;-66
2024/03/15 04:59:52;;;;;;;16.48;9.05;;;;;;;8.77;100.00;98443.13;4975567;28;20058;-64
2024/03/15 05:02:19;;;;;;;15.30;9.65;;;;;;;8.75;100.00;98440.69;4969125;28;20073;-64
2024/03/15 05:04:45;;;;;;;16.70;9.68;;;;;;;8.59;100.00;98430.03;4989767;28;20054;-65
2024/03/15 05:07:12;;;;;;;14.75;9.05;;;;;;;8.59;100.00;98438.63;4955566;28;20069;-65
2024/03/15 05:09:42;;;;;;;15.20;8.52;;;;;;;8.78;100.00;98448.19;4979582;28;20042;-66
2024/03/15 05:12:08;;;;;;;14.15;8.60;;;;;;;8.74;100.00;98435.63;4981215;28;20571;-64
2024/03/15 05:14:35;;;;;;;16.45;8.57;;;;;;;8.62;100.00;98406.44;4971535;28;20105;-67
2024/03/15 05:17:01;;;;;;;15.80;8.38;;;;;;;8.59;100.00;98404.13;4973751;28;20031;-66
2024/03/15 05:19:29;;;;;;;13.90;8.45;;;;;;;8.84;100.00;98442.44;4959627;28;20053;-65
2024/03/15 05:21:54;;;;;;;15.13;8.88;;;;;;;8.52;100.00;98395.25;4963600;28;20046;-64
2024/03/15 05:24:20;;;;;;;12.68;8.60;;;;;;;8.75;100.00;98442.47;4963592;28;20184;-63
2024/03/15 05:26:47;;;;;;;13.80;9.57;;;;;;;8.76;100.00;98437.16;4963667;28;20788;-64
2024/03/15 05:29:15;;;;;;;14.63;9.50;;;;;;;8.81;100.00;98449.69;4961471;28;20811;-66
2024/03/15 05:31:41;;;;;;;14.38;8.90;;;;;;;8.82;100.00;98439.19;4978852;28;20040;-65
2024/03/15 05:34:07;;;;;;;12.85;8.90;;;;;;;8.76;100.00;98438.91;4981397;28;20404;-66
2024/03/15 05:36:34;;;;;;;15.50;8.40;;;;;;;8.81;100.00;98439.31;4978314;28;20065;-67
2024/03/15 05:39:00;;;;;;;15.98;9.25;;;;;;;8.78;100.00;98444.75;4958628;28;20045;-67
2024/03/15 05:41:25;;;;;;;14.00;8.93;;;;;;;8.58;100.00;98403.31;4978913;28;20053;-66
2024/03/15 05:43:53;;;;;;;17.67;9.68;;;;;;;8.86;100.00;98442.31;4979200;28;20042;-65
2024/03/15 05:46:18;;;;;;;16.48;10.10;;;;;;;8.88;100.00;98443.00;4961242;28;20562;-67
2024/03/15 05:48:44;;;;;;;18.40;10.13;;;;;;;8.83;100.00;98432.22;4965763;28;20096;-65
2024/03/15 05:51:09;;;;;;;15.25;9.27;;;;;;;8.81;100.00;98442.72;4957075;28;20048;-65
2024/03/15 05:53:35;;;;;;;17.00;9.68;;;;;;;8.80;100.00;98453.25;4964840;28;20150;-67
2024/03/15 05:56:01;;;;;;;15.32;9.68;;;;;;;8.52;100.00;98413.41;4958933;28;20092;-64
2024/03/15 05:58:27;;;;;;;18.75;9.85;;;;;;;8.69;100.00;98450.78;4971483;28;20124;-66
2024/03/15 06:00:52;;;;;;;17.73;9.77;;;;;;;8.69;100.00;98463.72;4969486;28;20140;-67
2024/03/15 06:03:23;;;;;;;18.15;10.05;;;;;;;8.72;100.00;98469.47;4984789;28;20061;-66
2024/03/15 06:05:50;;;;;;;17.75;10.38;;;;;;;8.80;100.00;98474.78;4967710;28;20038;-66
2024/03/15 06:08:16;;;;;;;15.50;9.63;;;;;;;8.78;100.00;98471.53;4968843;28;20031;-66
2024/03/15 06:10:44;;;;;;;14.50;9.00;;;;;;;8.81;100.00;98479.00;4979258;28;20542;-66
2024/03/15 06:13:11;;;;;;;16.55;10.13;;;;;;;8.85;100.00;98477.81;4956625;28;20401;-65
2024/03/15 06:15:40;;;;;;;16.67;10.10;;;;;;;8.85;100.00;98471.78;4974186;28;20777;-65
2024/03/15 06:18:08;;;;;;;13.32;9.25;;;;;;;8.88;100.00;98479.28;4977207;28;20058;-66
2024/03/15 06:20:33;;;;;;;16.30;9.50;;;;;;;8.85;100.00;98469.19;4962243;28;20037;-67
2024/03/15 06:23:01;;;;;;;14.65;9.65;;;;;;;8.94;100.00;98481.31;4980034;28;20049;-66
2024/03/15 06:25:29;;;;;;;18.35;9.90;;;;;;;8.60;100.00;98429.09;4964045;28;20069;-65
2024/03/15 06:27:55;;;;;;;14.10;9.77;;;;;;;8.93;100.00;98478.91;4976609;28;20455;-65
2024/03/15 06:30:25;;;;;;;18.38;9.20;;;;;;;8.91;100.00;98476.44;4973157;28;20035;-64
2024/03/15 06:32:51;;;;;;;13.88;9.07;;;;;;;8.72;100.00;98434.94;4973651;28;20037;-64
2024/03/15 06:35:19;;;;;;;14.70;9.25;;;;;;;9.06;100.00;98476.03;4981679;28;20128;-64
2024/03/15 06:37:46;;;;;;;16.48;10.18;;;;;;;8.81;100.00;98437.53;4991375;28;20041;-64
2024/03/15 06:40:30;;;;;;;15.57;9.68;;;;;;;9.04;100.00;98479.56;4977037;28;20230;-65
2024/03/15 06:43:13;;;;;;;18.02;9.82;;;;;;;9.02;100.00;98472.88;4977656;28;20500;-66
2024/03/15 06:45:52;;;;;;;17.80;10.32;;;;;;;9.15;100.00;98477.78;4972088;28;20038;-65
2024/03/15 06:48:33;;;;;;;16.37;10.27;;;;;;;9.08;100.00;98474.91;4975394;28;20370;-64
2024/03/15 06:52:31;;;;;;;16.27;9.93;;;;;;;8.87;100.00;98471.66;4958673;28;20046;-65
2024/03/15 06:53:47;;;;;;;16.95;10.70;;;;;;;8.95;100.00;98467.41;4968387;28;20094;-65
2024/03/15 06:56:13;;;;;;;16.13;10.00;;;;;;;8.72;100.00;98440.94;4976818;28;20053;-66
2024/03/15 06:58:38;;;;;;;13.90;9.93;;;;;;;9.00;100.00;98477.41;4977520;28;20695;-66
2024/03/15 07:01:04;;;;;;;14.43;10.50;;;;;;;9.10;100.00;98475.59;4972540;28;20140;-65
2024/03/15 07:03:32;;;;;;;16.40;10.75;;;;;;;9.14;100.00;98481.31;4967555;28;20042;-63
2024/03/15 07:05:59;;;;;;;18.77;11.13;;;;;;;9.16;100.00;98485.44;4981671;28;20046;-67
2024/03/15 07:08:25;;;;;;;16.77;10.90;;;;;;;9.04;100.00;98482.16;4981906;28;20034;-67
2024/03/15 07:10:51;;;;;;;18.60;11.05;;;;;;;9.12;100.00;98491.03;4977813;28;20121;-64
2024/03/15 07:13:16;;;;;;;14.93;10.40;;;;;;;9.09;100.00;98486.09;4966465;28;20533;-66
2024/03/15 07:15:43;;;;;;;19.63;10.60;;;;;;;9.10;100.00;98491.16;4982902;28;20133;-65
2024/03/15 07:18:10;;;;;;;15.38;10.50;;;;;;;8.98;100.00;98482.72;4977953;28;20045;-65
2024/03/15 07:20:36;;;;;;;18.35;11.60;;;;;;;8.94;100.00;98489.09;4961531;28;21374;-65
2024/03/15 07:23:06;;;;;;;18.17;11.15;;;;;;;8.80;100.00;98489.53;4962921;28;20046;-66
2024/03/15 07:25:36;;;;;;;16.05;10.90;;;;;;;8.66;100.00;98451.88;4975806;28;20038;-65
2024/03/15 07:28:02;;;;;;;17.65;11.43;;;;;;;8.96;100.00;98492.41;4964044;28;20038;-66
2024/03/15 07:30:30;;;;;;;19.70;11.88;;;;;;;8.74;100.00;98453.78;4975709;28;20142;-65
2024/03/15 07:32:58;;;;;;;15.23;10.30;;;;;;;9.10;100.00;98496.34;4977891;28;20053;-63
2024/03/15 07:35:27;;;;;;;17.95;11.60;;;;;;;9.28;100.00;98498.25;4967870;28;20161;-66
2024/03/15 07:37:53;;;;;;;18.38;11.52;;;;;;;9.33;100.00;98489.09;4979326;28;20181;-65
2024/03/15 07:40:19;;;;;;;20.98;11.77;;;;;;;9.44;100.00;98495.88;4974252;28;20056;-67
2024/03/15 07:42:45;;;;;;;15.80;10.73;;;;;;;9.46;100.00;98495.75;4961178;28;20657;-66
2024/03/15 07:45:13;;;;;;;18.00;11.13;;;;;;;9.36;100.00;98494.00;4956594;28;20678;-64
2024/03/15 07:47:38;;;;;;;16.73;11.35;;;;;;;9.37;100.00;98495.63;4978495;28;20042;-64
2024/03/15 07:50:07;;;;;;;20.55;11.70;;;;;;;9.48;100.00;98491.25;4957935;28;21145;-68
2024/03/15 07:52:32;;;;;;;14.27;10.80;;;;;;;9.66;100.00;98499.94;4976359;28;20039;-66
2024/03/15 07:54:58;;;;;;;16.10;11.55;;;;;;;9.68;100.00;98500.59;4974709;28;20034;-67
2024/03/15 07:57:23;;;;;;;16.45;11.13;;;;;;;9.73;100.00;98503.59;4992904;28;20049;-65
2024/03/15 07:59:51;;;;;;;18.50;11.25;;;;;;;9.84;100.00;98500.00;4981221;28;20725;-65
2024/03/15 08:02:17;;;;;;;18.52;12.10;;;;;;;9.87;100.00;98498.88;4980944;28;20587;-66
2024/03/15 08:04:47;;;;;;;17.50;11.32;;;;;;;9.91;100.00;98510.63;4996336;28;20049;-67
2024/03/15 08:07:14;;;;;;;16.05;11.57;;;;;;;9.96;100.00;98506.63;4962616;28;20042;-66
2024/03/15 08:09:39;;;;;;;17.50;11.60;;;;;;;9.91;100.00;98482.91;4960127;28;20050;-66
2024/03/15 08:12:06;;;;;;;17.15;11.75;;;;;;;9.87;100.00;98465.94;4962248;28;20579;-66
2024/03/15 08:14:36;;;;;;;18.85;12.48;;;;;;;10.10;100.00;98513.16;4971014;28;20038;-65
2024/03/15 08:17:04;;;;;;;16.17;12.48;;;;;;;10.05;100.00;98517.13;4983174;28;20844;-65
2024/03/15 08:19:32;;;;;;;20.08;12.48;;;;;;;10.03;100.00;98511.28;4957494;28;20822;-65
2024/03/15 08:21:57;;;;;;;18.90;12.02;;;;;;;10.23;100.00;98520.59;4975011;28;20042;-65
2024/03/15 08:24:26;;;;;;;18.48;12.35;;;;;;;10.32;100.00;98514.56;4988648;28;20050;-67
2024/03/15 08:26:52;;;;;;;19.15;13.13;;;;;;;10.15;100.00;98466.78;4977795;28;20030;-64
2024/03/15 08:29:20;;;;;;;20.60;12.15;;;;;;;10.51;100.00;98510.22;4966789;28;20045;-65
2024/03/15 08:31:47;;;;;;;19.65;12.70;;;;;;;10.64;100.00;98521.09;4958812;28;20065;-66
2024/03/15 08:34:13;;;;;;;21.40;12.98;;;;;;;10.67;100.00;98522.56;4982518;28;20048;-65
2024/03/15 08:36:38;;;;;;;21.42;13.27;;;;;;;10.62;100.00;98514.38;4975764;28;20408;-63
2024/03/15 08:39:15;;;;;;;21.25;12.63;;;;;;;10.49;100.00;98518.16;4978790;28;21107;-65
2024/03/15 08:41:42;;;;;;;17.90;13.52;;;;;;;10.67;100.00;98525.16;4970798;28;20161;-65
2024/03/15 08:44:11;;;;;;;18.98;13.05;;;;;;;10.72;100.00;98518.56;4957053;28;20084;-63
2024/03/15 08:46:36;;;;;;;20.45;13.75;;;;;;;10.82;100.00;98520.28;4977133;28;20689;-65
2024/03/15 08:49:05;;;;;;;18.70;13.55;;;;;;;10.92;100.00;98514.03;4956802;28;20047;-64
2024/03/15 08:51:30;;;;;;;19.88;13.63;;;;;;;11.02;100.00;98515.72;4977373;28;20076;-66
2024/03/15 08:53:58;;;;;;;19.42;13.93;;;;;;;11.19;100.00;98525.31;4958430;28;20176;-66
2024/03/15 08:56:26;;;;;;;20.60;13.02;;;;;;;11.21;100.00;98523.38;4981186;28;20079;-65
2024/03/15 08:58:51;;;;;;;20.10;13.95;;;;;;;11.32;100.00;98523.13;4979446;28;20511;-64
2024/03/15 09:01:21;;;;;;;20.75;12.68;;;;;;;11.34;100.00;98520.38;4976064;28;20046;-65
2024/03/15 09:03:48;;;;;;;21.17;13.00;;;;;;;11.33;100.00;98516.13;4978330;28;20120;-66
2024/03/15 09:06:14;;;;;;;19.27;14.30;;;;;;;11.40;100.00;98517.16;4991425;28;20037;-63
2024/03/15 09:08:54;;;;;;;20.05;13.45;;;;;;;11.45;100.00;98511.50;5004176;28;20398;-65
2024/03/15 09:11:20;;;;;;;19.20;13.27;;;;;;;11.43;100.00;98511.66;4965440;28;20030;-65
2024/03/15 09:13:45;;;;;;;19.73;14.32;;;;;;;11.53;100.00;98511.56;4966741;28;20052;-65
2024/03/15 09:16:16;;;;;;;22.27;13.88;;;;;;;11.70;100.00;98517.66;4968692;28;20042;-66
2024/03/15 09:18:43;;;;;;;19.52;13.73;;;;;;;11.78;100.00;98504.72;4979998;28;20049;-64
2024/03/15 09:21:08;;;;;;;21.55;15.15;;;;;;;11.67;100.00;98479.75;4982876;28;20044;-65
2024/03/15 09:23:37;;;;;;;20.33;13.13;;;;;;;11.84;100.00;98505.88;4979581;28;20034;-66
2024/03/15 09:26:04;;;;;;;21.65;14.27;;;;;;;11.82;100.00;98498.22;4961082;28;20041;-64
2024/03/15 09:28:37;;;;;;;20.05;15.23;;;;;;;12.02;100.00;98509.25;4979998;28;20037;-65
2024/03/15 09:31:08;;;;;;;21.25;14.00;;;;;;;12.10;100.00;98508.44;4961696;28;20034;-65
2024/03/15 09:33:36;;;;;;;19.63;12.45;;;;;;;12.16;100.00;98504.44;4976662;28;20084;-65
2024/03/15 09:36:05;;;;;;;19.27;12.75;;;;;;;12.17;100.00;98501.63;4975077;28;20042;-65
2024/03/15 09:38:33;;;;;;;16.27;12.30;;;;;;;12.29;100.00;98504.78;4981491;28;20100;-65
2024/03/15 09:40:59;;;;;;;13.75;8.07;;;;;;;12.13;100.00;98463.84;4960177;28;20077;-65
2024/03/15 09:43:27;;;;;;;14.18;6.90;;;;;;;12.37;100.00;98502.19;4978431;28;20591;-65
2024/03/15 09:45:53;;;;;;;19.38;8.77;;;;;;;12.42;100.00;98499.94;4967447;28;20206;-66
2024/03/15 09:48:21;;;;;;;13.27;7.95;;;;;;;12.41;100.00;98498.31;4977485;28;20038;-66
2024/03/15 09:50:48;;;;;;;15.65;8.15;;;;;;;12.42;100.00;98494.72;4990340;28;20037;-66
2024/03/15 09:53:16;;;;;;;11.90;7.40;;;;;;;12.43;100.00;98495.53;4978556;28;20085;-66
2024/03/15 09:55:52;;;;;;;12.80;7.38;;;;;;;12.50;100.00;98497.38;4967431;28;20072;-67
2024/03/15 09:58:19;;;;;;;13.50;7.45;;;;;;;12.58;100.00;98504.38;4964346;28;20051;-67
2024/03/15 10:00:44;;;;;;;15.18;8.57;;;;;;;12.60;100.00;98504.22;4982067;28;20035;-65
2024/03/15 10:03:13;;;;;;;15.85;9.23;;;;;;;12.61;100.00;98508.44;4978592;28;20048;-64
2024/03/15 10:05:38;;;;;;;12.43;8.40;;;;;;;12.62;100.00;98510.91;4962447;28;20044;-67
2024/03/15 10:08:05;;;;;;;18.05;11.00;;;;;;;12.68;100.00;98514.66;4983072;28;20045;-66
2024/03/15 10:10:34;;;;;;;17.55;9.70;;;;;;;12.62;100.00;98489.22;4950762;28;20042;-65
2024/03/15 10:13:01;;;;;;;14.32;9.15;;;;;;;12.82;100.00;98521.06;4969430;28;20065;-64
2024/03/15 10:15:29;;;;;;;16.17;10.40;;;;;;;12.88;100.00;98510.75;4959194;28;20042;-66
2024/03/15 10:17:57;;;;;;;16.60;9.63;;;;;;;13.05;100.00;98516.84;4983933;28;20045;-63
2024/03/15 10:20:26;;;;;;;17.35;9.73;;;;;;;13.04;100.00;98525.63;4979560;28;20147;-65
2024/03/15 10:22:57;;;;;;;16.77;9.90;;;;;;;13.13;100.00;98521.22;4965367;28;20933;-65
2024/03/15 10:25:28;;;;;;;18.17;10.05;;;;;;;13.17;100.00;98516.50;4964938;28;20060;-63
2024/03/15 10:27:57;;;;;;;16.42;9.48;;;;;;;13.27;100.00;98517.16;4951089;28;20048;-65
2024/03/15 10:30:29;;;;;;;14.52;10.18;;;;;;;13.31;100.00;98517.69;4966568;28;20034;-63
2024/03/15 10:33:03;;;;;;;15.88;10.65;;;;;;;13.39;100.00;98513.25;4976898;28;20042;-65
2024/03/15 10:35:28;;;;;;;15.13;10.10;;;;;;;13.41;100.00;98521.72;4955166;28;20053;-65
2024/03/15 10:37:54;;;;;;;16.48;10.00;;;;;;;13.52;100.00;98517.97;4962230;28;20065;-65
2024/03/15 10:40:27;;;;;;;14.40;9.82;;;;;;;13.33;100.00;98489.59;4980482;28;20084;-64
2024/03/15 10:42:56;;;;;;;17.60;10.40;;;;;;;13.35;100.00;98472.78;4955981;28;20050;-63
2024/03/15 10:45:24;;;;;;;;;;;;;;;13.57;100.00;98523.50;4950400;28;20105;-63
2024/03/15 10:47:50;;;;;;;19.05;9.90;;;;;;;13.49;100.00;98509.63;4972407;28;20036;-64
2024/03/15 10:50:17;;;;;;;19.05;9.80;;;;;;;13.46;100.00;98513.41;4959893;28;20297;-65
2024/03/15 10:52:46;;;;;;;16.27;9.85;;;;;;;13.54;100.00;98517.78;4969274;28;20033;-65
2024/03/15 10:55:24;;;;;;;16.38;10.23;;;;;;;13.55;100.00;98519.44;4962175;28;20041;-64
2024/03/15 10:57:50;;;;;;;14.65;9.85;;;;;;;13.57;100.00;98507.84;4957551;28;20054;-65
2024/03/15 11:00:24;;;;;;;13.88;9.63;;;;;;;13.62;100.00;98504.72;4969435;28;20040;-64
2024/03/15 11:02:51;;;;;;;15.93;10.40;;;;;;;13.75;100.00;98509.44;4977380;28;20058;-63
2024/03/15 11:05:19;;;;;;;15.07;10.23;;;;;;;13.45;100.00;98428.19;4982052;28;20042;-64
2024/03/15 11:07:46;;;;;;;15.05;9.77;;;;;;;13.85;100.00;98468.22;4977332;28;20910;-64
2024/03/15 11:10:15;;;;;;;16.00;10.25;;;;;;;14.16;100.00;98499.63;4963368;28;20480;-65
2024/03/15 11:12:41;;;;;;;14.15;9.63;;;;;;;14.01;100.00;98491.69;4962945;28;20677;-64
2024/03/15 11:15:19;;;;;;;15.35;10.43;;;;;;;14.12;100.00;98487.91;4980973;28;20046;-65
2024/03/15 11:17:45;;;;;;;16.15;10.07;;;;;;;14.22;100.00;98495.56;4960449;28;20049;-64
2024/03/15 11:20:16;;;;;;;15.57;9.77;;;;;;;14.36;100.00;98499.22;4979297;28;20049;-64